Time;durP1;ratioP1;P1;durP2;ratioP2;P2;SDS_P1;SDS_P2;PMS_P1;PMS_P2;Temp;Humidity;BMP_temperature;BMP_pressure;BME280_temperature;BME280_humidity;BME280_pressure;Samples;Min_cycle;Max_cycle;Signal;HPM_P1;HPM_P2
2022/11/17 00:00:14;;;;;;;5.97;2.20;;;13.00;99.90;;;;;;2070819;28;20076;-69
2022/11/17 00:01:18;;;;;;;5.20;1.90;;;12.90;99.90;;;;;;2070298;28;20032;-69
2022/11/17 00:02:19;;;;;;;6.88;2.05;;;13.00;99.90;;;;;;2069246;28;20327;-69
2022/11/17 00:03:19;;;;;;;3.80;2.00;;;13.00;99.90;;;;;;2070433;28;20135;-69
2022/11/17 00:04:20;;;;;;;7.18;2.05;;;13.00;99.90;;;;;;2070081;28;20030;-69
2022/11/17 00:05:21;;;;;;;4.78;2.00;;;13.00;99.90;;;;;;2071039;28;20021;-69
2022/11/17 00:06:21;;;;;;;5.78;2.33;;;13.00;99.90;;;;;;2068577;28;20014;-69
2022/11/17 00:07:22;;;;;;;6.45;1.92;;;13.00;99.90;;;;;;2069773;28;20033;-69
2022/11/17 00:08:22;;;;;;;5.88;2.10;;;13.00;99.90;;;;;;2070177;28;20037;-69
2022/11/17 00:09:23;;;;;;;7.25;2.10;;;13.00;99.90;;;;;;2071689;28;20022;-69
2022/11/17 00:10:23;;;;;;;6.38;2.10;;;13.00;99.90;;;;;;2069725;28;20018;-69
2022/11/17 00:11:24;;;;;;;4.57;2.40;;;13.00;99.90;;;;;;2068649;28;20029;-69
2022/11/17 00:15:03;;;;;;;6.75;2.25;;;13.00;99.90;;;;;;2068305;28;20030;-69
2022/11/17 00:16:04;;;;;;;7.30;2.38;;;12.90;99.90;;;;;;2067540;28;20019;-69
2022/11/17 00:17:10;;;;;;;6.47;1.90;;;12.90;99.90;;;;;;2070379;28;20037;-69
2022/11/17 00:22:08;;;;;;;5.18;2.03;;;12.90;99.90;;;;;;2072393;28;20437;-69
2022/11/17 00:23:08;;;;;;;5.40;1.80;;;12.90;99.90;;;;;;2070057;28;20034;-69
2022/11/17 00:24:09;;;;;;;4.90;1.90;;;12.90;99.90;;;;;;2071484;28;20125;-69
2022/11/17 00:25:09;;;;;;;6.22;2.28;;;12.90;99.90;;;;;;2071345;28;20034;-69
2022/11/17 00:26:10;;;;;;;7.95;2.40;;;12.90;99.90;;;;;;2069948;28;20053;-69
2022/11/17 00:27:11;;;;;;;6.22;1.95;;;12.90;99.90;;;;;;2071393;28;20026;-69
2022/11/17 00:28:11;;;;;;;3.92;1.77;;;12.90;99.90;;;;;;2069229;28;20049;-69
2022/11/17 00:29:12;;;;;;;7.15;2.13;;;12.90;99.90;;;;;;2067546;28;20029;-69
2022/11/17 00:34:03;;;;;;;5.68;2.00;;;12.90;99.90;;;;;;2071123;28;20018;-69
2022/11/17 00:34:20;;;;;;;5.63;1.77;;;12.80;99.90;;;;;;2067029;28;20030;-69
2022/11/17 00:35:21;;;;;;;6.70;2.20;;;12.80;99.90;;;;;;2069528;28;20108;-69
2022/11/17 00:36:24;;;;;;;4.07;1.83;;;12.80;99.90;;;;;;2067670;28;20256;-69
2022/11/17 00:37:27;;;;;;;6.45;2.05;;;12.80;99.90;;;;;;2069905;28;20026;-69
2022/11/17 00:38:27;;;;;;;5.30;1.90;;;12.80;99.90;;;;;;2071405;28;20536;-69
2022/11/17 00:39:28;;;;;;;6.55;1.80;;;12.80;99.90;;;;;;2071168;28;20390;-69
2022/11/17 00:40:29;;;;;;;3.35;1.90;;;12.80;99.90;;;;;;2070170;28;20915;-69
2022/11/17 00:41:29;;;;;;;4.95;1.70;;;12.80;99.90;;;;;;2070848;28;20107;-69
2022/11/17 00:42:30;;;;;;;6.20;2.13;;;12.80;99.90;;;;;;2069604;28;20044;-69
2022/11/17 00:43:30;;;;;;;3.30;2.13;;;12.80;99.90;;;;;;2068480;28;20036;-69
2022/11/17 00:44:31;;;;;;;5.00;2.13;;;12.80;99.90;;;;;;2070775;28;20030;-69
2022/11/17 00:45:32;;;;;;;3.88;2.20;;;12.80;99.90;;;;;;2070657;28;20105;-69
2022/11/17 00:46:33;;;;;;;4.13;2.00;;;12.80;99.90;;;;;;2070230;28;20049;-69
2022/11/17 00:47:35;;;;;;;3.83;1.88;;;12.80;99.90;;;;;;2069330;28;20022;-69
2022/11/17 00:48:35;;;;;;;3.55;1.63;;;12.80;99.90;;;;;;2070426;28;20133;-69
2022/11/17 00:49:36;;;;;;;3.72;1.83;;;12.80;99.90;;;;;;2070983;28;20029;-69
2022/11/17 00:50:36;;;;;;;5.15;2.47;;;12.70;99.90;;;;;;2069512;28;20026;-69
2022/11/17 00:51:37;;;;;;;4.60;1.90;;;12.70;99.90;;;;;;2071360;28;20552;-69
2022/11/17 00:52:37;;;;;;;4.15;1.80;;;12.70;99.90;;;;;;2071023;28;20068;-69
2022/11/17 00:53:38;;;;;;;7.18;2.10;;;12.70;99.90;;;;;;2071347;28;20724;-69
2022/11/17 00:54:38;;;;;;;2.92;1.77;;;12.70;99.90;;;;;;2071499;28;20505;-69
2022/11/17 00:55:41;;;;;;;3.50;1.90;;;12.70;99.90;;;;;;2069163;28;20169;-69
2022/11/17 00:56:41;;;;;;;5.03;1.80;;;12.70;99.90;;;;;;2066538;28;20030;-69
2022/11/17 00:57:42;;;;;;;4.45;2.10;;;12.70;99.90;;;;;;2070257;28;20030;-69
2022/11/17 00:58:43;;;;;;;4.35;1.70;;;12.60;99.90;;;;;;2069756;28;20026;-69
2022/11/17 00:59:43;;;;;;;5.10;1.95;;;12.60;99.90;;;;;;2070177;28;20053;-69
2022/11/17 01:00:44;;;;;;;5.40;2.03;;;12.60;99.90;;;;;;2069639;28;20030;-69
2022/11/17 01:01:45;;;;;;;4.68;1.85;;;12.60;99.90;;;;;;2070450;28;20048;-69
2022/11/17 01:02:45;;;;;;;5.43;1.80;;;12.60;99.90;;;;;;2068012;28;20044;-69
2022/11/17 01:03:46;;;;;;;5.07;1.52;;;12.60;99.90;;;;;;2067666;28;20718;-69
2022/11/17 01:04:47;;;;;;;5.68;1.92;;;12.60;99.90;;;;;;2068822;28;20056;-69
2022/11/17 01:05:47;;;;;;;4.72;2.22;;;12.60;99.90;;;;;;2069082;28;20052;-69
2022/11/17 01:06:48;;;;;;;3.35;1.75;;;12.60;99.90;;;;;;2070481;28;20136;-69
2022/11/17 01:07:48;;;;;;;4.20;1.60;;;12.60;99.90;;;;;;2070193;28;20037;-69
2022/11/17 01:08:49;;;;;;;3.00;1.85;;;12.60;99.90;;;;;;2070813;28;20030;-69
2022/11/17 01:09:49;;;;;;;2.60;1.60;;;12.60;99.90;;;;;;2069622;28;20050;-69
2022/11/17 01:10:50;;;;;;;5.53;1.80;;;12.60;99.90;;;;;;2069291;28;20026;-69
2022/11/17 01:11:52;;;;;;;3.95;1.60;;;12.60;99.90;;;;;;2077813;28;20692;-69
2022/11/17 01:12:53;;;;;;;2.83;1.52;;;12.60;99.90;;;;;;2076825;28;20040;-69
2022/11/17 01:13:56;;;;;;;4.53;1.80;;;12.60;99.90;;;;;;2068280;28;20036;-69
2022/11/17 01:14:57;;;;;;;3.50;1.48;;;12.60;99.90;;;;;;2070200;28;20089;-69
2022/11/17 01:16:02;;;;;;;4.25;1.70;;;12.60;99.90;;;;;;2066047;28;20050;-69
2022/11/17 01:17:02;;;;;;;4.20;1.70;;;12.60;99.90;;;;;;2070435;28;20030;-69
2022/11/17 01:18:03;;;;;;;3.38;1.80;;;12.60;99.90;;;;;;2069348;28;20057;-69
2022/11/17 01:19:04;;;;;;;4.03;1.52;;;12.60;99.90;;;;;;2070487;28;20022;-69
2022/11/17 01:20:06;;;;;;;3.35;1.67;;;12.60;99.90;;;;;;2068189;28;20096;-69
2022/11/17 01:21:10;;;;;;;4.18;1.80;;;12.60;99.90;;;;;;2070839;28;20034;-69
2022/11/17 01:22:10;;;;;;;4.32;1.77;;;12.60;99.90;;;;;;2068883;28;20371;-69
2022/11/17 01:23:11;;;;;;;3.78;1.48;;;12.60;99.90;;;;;;2068340;28;20059;-69
2022/11/17 01:24:13;;;;;;;5.47;2.03;;;12.60;99.90;;;;;;2070856;28;20022;-69
2022/11/17 01:25:14;;;;;;;3.03;1.63;;;12.60;99.90;;;;;;2069230;28;20057;-69
2022/11/17 01:26:18;;;;;;;3.10;1.48;;;12.60;99.90;;;;;;2068456;28;20026;-69
2022/11/17 01:27:18;;;;;;;3.97;1.83;;;12.60;99.90;;;;;;2068299;28;20036;-69
2022/11/17 01:28:19;;;;;;;3.67;1.40;;;12.60;99.90;;;;;;2069740;28;20049;-69
2022/11/17 01:29:19;;;;;;;3.67;1.60;;;12.60;99.90;;;;;;2070201;28;20037;-69
2022/11/17 01:30:20;;;;;;;2.65;1.67;;;12.60;99.90;;;;;;2070181;28;20557;-69
2022/11/17 01:31:26;;;;;;;5.43;1.77;;;12.70;99.90;;;;;;2068331;28;20022;-69
2022/11/17 01:32:27;;;;;;;3.65;1.50;;;12.60;99.90;;;;;;2070317;28;20100;-69
2022/11/17 01:33:28;;;;;;;4.85;1.80;;;12.70;99.90;;;;;;2069578;28;20033;-69
2022/11/17 01:34:28;;;;;;;3.45;1.60;;;12.70;99.90;;;;;;2069743;28;20030;-69
2022/11/17 01:35:29;;;;;;;3.83;1.55;;;12.70;99.90;;;;;;2068352;28;20022;-70
2022/11/17 01:38:00;;;;;;;7.18;1.58;;;12.60;99.90;;;;;;2070258;28;20034;-70
2022/11/17 01:39:00;;;;;;;6.93;1.98;;;12.60;99.90;;;;;;2068457;28;20498;-70
2022/11/17 01:40:01;;;;;;;5.22;1.60;;;12.60;99.90;;;;;;2068548;28;21093;-70
2022/11/17 01:41:06;;;;;;;4.22;1.40;;;12.60;99.90;;;;;;2077303;28;20588;-70
2022/11/17 01:42:16;;;;;;;3.45;1.70;;;12.60;99.90;;;;;;2076116;28;20123;-70
2022/11/17 01:43:32;;;;;;;2.85;1.60;;;12.60;99.90;;;;;;2068046;28;20022;-70
2022/11/17 01:44:50;;;;;;;3.78;1.60;;;12.60;99.90;;;;;;2069944;28;20068;-70
2022/11/17 01:45:51;;;;;;;3.15;1.90;;;12.60;99.90;;;;;;2067159;28;20083;-70
2022/11/17 01:46:52;;;;;;;4.85;1.60;;;12.50;99.90;;;;;;2069203;28;20029;-70
2022/11/17 01:48:01;;;;;;;3.53;1.73;;;12.50;99.90;;;;;;2069958;28;20029;-70
2022/11/17 01:49:11;;;;;;;5.38;1.70;;;12.50;99.90;;;;;;2070065;28;20133;-70
2022/11/17 01:50:26;;;;;;;3.97;1.67;;;12.50;99.90;;;;;;2069987;28;20120;-70
2022/11/17 01:51:30;;;;;;;6.13;1.88;;;12.50;99.90;;;;;;2070214;28;20049;-70
2022/11/17 01:52:32;;;;;;;5.80;2.08;;;12.50;99.90;;;;;;2070240;28;20034;-70
2022/11/17 01:53:34;;;;;;;5.28;1.85;;;12.50;99.90;;;;;;2068453;28;20022;-70
2022/11/17 01:54:39;;;;;;;3.65;1.50;;;12.50;99.90;;;;;;2070447;28;20367;-70
2022/11/17 01:55:49;;;;;;;4.55;1.63;;;12.50;99.90;;;;;;2070271;28;20057;-69
2022/11/17 01:56:56;;;;;;;4.88;1.83;;;12.50;99.90;;;;;;2068827;28;20113;-69
2022/11/17 01:58:04;;;;;;;5.75;1.80;;;12.50;99.90;;;;;;2069778;28;20152;-69
2022/11/17 01:59:12;;;;;;;3.40;2.05;;;12.50;99.90;;;;;;2070556;28;20061;-70
2022/11/17 02:00:13;;;;;;;3.03;1.58;;;12.40;99.90;;;;;;2069514;28;20148;-70
2022/11/17 02:01:14;;;;;;;6.10;1.40;;;12.40;99.90;;;;;;2068989;28;20072;-70
2022/11/17 02:02:15;;;;;;;4.88;1.80;;;12.40;99.90;;;;;;2070287;28;20041;-70
2022/11/17 02:03:16;;;;;;;4.25;1.70;;;12.40;99.90;;;;;;2069251;28;20588;-70
2022/11/17 02:04:16;;;;;;;4.50;1.90;;;12.50;99.90;;;;;;2070103;28;20022;-70
2022/11/17 02:05:46;;;;;;;2.47;1.25;;;12.40;99.90;;;;;;2068360;28;20025;-70
2022/11/17 02:06:48;;;;;;;4.57;1.95;;;12.40;99.90;;;;;;2068840;28;20103;-69
2022/11/17 02:07:52;;;;;;;6.20;1.70;;;12.40;99.90;;;;;;2067344;28;20030;-69
2022/11/17 02:08:53;;;;;;;4.32;1.50;;;12.40;99.90;;;;;;2068073;28;20100;-70
2022/11/17 02:09:55;;;;;;;3.78;1.20;;;12.40;99.90;;;;;;2070170;28;20044;-70
2022/11/17 02:10:57;;;;;;;4.30;1.98;;;12.40;99.90;;;;;;2070852;28;20021;-70
2022/11/17 02:11:58;;;;;;;2.17;1.25;;;12.40;99.90;;;;;;2069547;28;20553;-70
2022/11/17 02:13:00;;;;;;;4.32;1.80;;;12.40;99.90;;;;;;2068126;28;20840;-70
2022/11/17 02:14:01;;;;;;;3.60;1.60;;;12.40;99.90;;;;;;2067769;28;20022;-70
2022/11/17 02:15:03;;;;;;;2.70;1.38;;;12.40;99.90;;;;;;2065877;28;20082;-70
2022/11/17 02:16:10;;;;;;;5.13;1.77;;;12.40;99.90;;;;;;2067868;28;20033;-70
2022/11/17 02:17:11;;;;;;;3.20;1.52;;;12.40;99.90;;;;;;2069760;28;20022;-70
2022/11/17 02:18:11;;;;;;;3.65;1.70;;;12.40;99.90;;;;;;2070089;28;20183;-69
2022/11/17 02:19:15;;;;;;;5.40;1.70;;;12.30;99.90;;;;;;2069810;28;20401;-69
2022/11/17 02:20:30;;;;;;;2.13;1.10;;;12.30;99.90;;;;;;2068579;28;20057;-70
2022/11/17 02:21:43;;;;;;;2.67;1.50;;;12.30;99.90;;;;;;2068188;28;20393;-69
2022/11/17 02:23:16;;;;;;;2.95;1.40;;;12.30;99.90;;;;;;2070530;28;20036;-69
2022/11/17 02:24:49;;;;;;;3.65;1.63;;;12.30;99.90;;;;;;2069055;28;20025;-69
2022/11/17 02:26:07;;;;;;;2.95;1.52;;;12.20;99.90;;;;;;2069081;28;20033;-69
2022/11/17 02:27:40;;;;;;;3.10;1.50;;;12.20;99.90;;;;;;2068699;28;20104;-69
2022/11/17 02:29:19;;;;;;;2.15;1.33;;;12.20;99.90;;;;;;2068365;28;20026;-69
2022/11/17 02:30:21;;;;;;;4.38;1.73;;;12.20;99.90;;;;;;2055718;28;20077;-69
2022/11/17 02:31:44;;;;;;;4.68;1.50;;;12.20;99.90;;;;;;2053449;28;20099;-69
2022/11/17 02:33:03;;;;;;;3.47;1.65;;;12.20;99.90;;;;;;2069993;28;20034;-69
2022/11/17 02:34:23;;;;;;;1.58;1.27;;;12.20;99.90;;;;;;2069696;28;20124;-69
2022/11/17 02:35:29;;;;;;;3.78;1.50;;;12.10;99.90;;;;;;2068817;28;20029;-69
2022/11/17 02:36:40;;;;;;;2.85;1.25;;;12.10;99.90;;;;;;2068170;28;20030;-69
2022/11/17 02:38:11;;;;;;;5.35;1.50;;;12.10;99.90;;;;;;2070242;28;20052;-70
2022/11/17 02:39:29;;;;;;;4.15;1.33;;;12.10;99.90;;;;;;2068615;28;20018;-69
2022/11/17 02:40:45;;;;;;;2.63;1.33;;;12.10;99.90;;;;;;2069990;28;20033;-69
2022/11/17 02:41:55;;;;;;;4.03;1.52;;;12.10;99.90;;;;;;2069906;28;20030;-69
2022/11/17 02:44:35;;;;;;;3.03;1.35;;;12.10;99.90;;;;;;2068507;28;20108;-69
2022/11/17 02:45:45;;;;;;;3.53;1.70;;;12.10;99.90;;;;;;2069522;28;20022;-69
2022/11/17 02:46:50;;;;;;;3.20;1.50;;;12.10;99.90;;;;;;2068239;28;20906;-69
2022/11/17 02:47:53;;;;;;;2.45;1.63;;;12.10;99.90;;;;;;2068812;28;20038;-69
2022/11/17 02:48:59;;;;;;;2.67;1.35;;;12.10;99.90;;;;;;2068887;28;20241;-69
2022/11/17 02:50:06;;;;;;;3.78;1.13;;;12.10;99.90;;;;;;2069669;28;20053;-69
2022/11/17 02:51:12;;;;;;;4.13;1.25;;;12.10;99.90;;;;;;2069442;28;20053;-69
2022/11/17 02:52:14;;;;;;;3.78;1.20;;;12.10;99.90;;;;;;2069280;28;20556;-69
2022/11/17 02:53:15;;;;;;;4.53;1.23;;;12.10;99.90;;;;;;2069026;28;20030;-69
2022/11/17 02:54:17;;;;;;;4.03;1.30;;;12.10;99.90;;;;;;2073813;28;20059;-69
2022/11/17 02:55:18;;;;;;;4.03;1.65;;;12.10;99.90;;;;;;2074226;28;20077;-69
2022/11/17 02:56:18;;;;;;;4.13;1.90;;;12.10;99.90;;;;;;2070795;28;20545;-69
2022/11/17 02:57:28;;;;;;;5.43;1.75;;;12.10;99.90;;;;;;2070054;28;20014;-69
2022/11/17 02:58:28;;;;;;;4.35;1.40;;;12.10;99.90;;;;;;2070650;28;20026;-69
2022/11/17 02:59:41;;;;;;;3.22;1.27;;;12.10;99.90;;;;;;2071748;28;20034;-69
2022/11/17 03:00:53;;;;;;;3.83;1.50;;;12.10;99.90;;;;;;2070348;28;20108;-69
2022/11/17 03:02:02;;;;;;;2.58;1.35;;;12.10;99.90;;;;;;2070057;28;20036;-69
2022/11/17 03:03:03;;;;;;;2.88;1.42;;;12.10;99.90;;;;;;2069912;28;20095;-69
2022/11/17 03:04:25;;;;;;;2.33;1.48;;;12.10;99.90;;;;;;2069687;28;20022;-69
2022/11/17 03:05:35;;;;;;;1.77;1.13;;;12.10;99.90;;;;;;2070058;28;20030;-69
2022/11/17 03:06:50;;;;;;;;;;;12.10;99.90;;;;;;2070558;28;20564;-69
2022/11/17 03:07:59;;;;;;;2.20;1.20;;;12.00;99.90;;;;;;2072068;28;20494;-69
2022/11/17 03:09:17;;;;;;;3.15;1.20;;;12.00;99.90;;;;;;2070448;28;20026;-70
2022/11/17 03:10:21;;;;;;;4.07;1.50;;;12.00;99.90;;;;;;2068880;28;20026;-69
2022/11/17 03:11:28;;;;;;;2.42;1.50;;;12.00;99.90;;;;;;2069269;28;20023;-69
2022/11/17 03:12:45;;;;;;;2.22;1.30;;;12.00;99.90;;;;;;2070402;28;20509;-69
2022/11/17 03:14:08;;;;;;;1.52;1.15;;;12.10;99.90;;;;;;2067319;28;20084;-69
2022/11/17 03:15:21;;;;;;;2.78;1.20;;;12.10;99.90;;;;;;2068297;28;20038;-69
2022/11/17 03:16:41;;;;;;;3.85;1.27;;;12.10;99.90;;;;;;2070191;28;20022;-69
2022/11/17 03:17:48;;;;;;;;;;;12.10;99.90;;;;;;2070308;28;20017;-69
2022/11/17 03:18:48;;;;;;;4.22;1.10;;;12.00;99.90;;;;;;2071006;28;19916;-69
2022/11/17 03:20:15;;;;;;;1.80;1.10;;;12.00;99.90;;;;;;2069927;28;20553;-69
2022/11/17 03:21:21;;;;;;;1.10;1.00;;;12.10;99.90;;;;;;2062999;28;20100;-69
2022/11/17 03:22:26;;;;;;;2.17;1.13;;;12.10;99.90;;;;;;2070596;28;20114;-69
2022/11/17 03:23:51;;;;;;;3.75;1.10;;;12.00;99.90;;;;;;2069874;28;20034;-69
2022/11/17 03:24:58;;;;;;;1.90;1.27;;;12.00;99.90;;;;;;2071198;28;20029;-69
2022/11/17 03:26:00;;;;;;;3.72;1.10;;;12.00;99.90;;;;;;2070690;28;20029;-69
2022/11/17 03:27:14;;;;;;;2.58;0.90;;;12.00;99.90;;;;;;2071634;28;20462;-69
2022/11/17 03:28:16;;;;;;;2.67;1.30;;;12.00;99.90;;;;;;2070289;28;20728;-69
2022/11/17 03:29:20;;;;;;;2.88;1.10;;;12.00;99.90;;;;;;2069465;28;20601;-69
2022/11/17 03:30:23;;;;;;;1.08;0.80;;;12.00;99.90;;;;;;2069999;28;21297;-69
2022/11/17 03:31:26;;;;;;;3.55;1.23;;;12.00;99.90;;;;;;2070546;28;20026;-69
2022/11/17 03:32:31;;;;;;;2.53;1.00;;;12.00;99.90;;;;;;2068318;28;20501;-69
2022/11/17 03:33:33;;;;;;;1.58;1.10;;;12.00;99.90;;;;;;2069782;28;20557;-69
2022/11/17 03:34:39;;;;;;;3.22;1.20;;;12.00;99.90;;;;;;2070016;28;20035;-69
2022/11/17 03:36:03;;;;;;;2.90;0.95;;;12.10;99.90;;;;;;2070077;28;20486;-70
2022/11/17 03:37:06;;;;;;;1.15;0.80;;;12.00;99.90;;;;;;2070301;28;20683;-70
2022/11/17 03:38:11;;;;;;;2.78;0.88;;;12.00;99.90;;;;;;2070093;28;20030;-70
2022/11/17 03:39:29;;;;;;;2.33;1.10;;;12.00;99.90;;;;;;2070158;28;20029;-70
2022/11/17 03:40:33;;;;;;;3.00;1.00;;;12.00;99.90;;;;;;2070857;28;20034;-70
2022/11/17 03:41:38;;;;;;;1.45;1.00;;;12.00;99.90;;;;;;2069604;28;20528;-70
2022/11/17 03:42:43;;;;;;;1.45;0.90;;;12.00;99.90;;;;;;2069056;28;20376;-70
2022/11/17 03:43:47;;;;;;;2.28;0.73;;;12.00;99.90;;;;;;2067141;28;20030;-70
2022/11/17 03:44:57;;;;;;;2.30;0.90;;;12.00;99.90;;;;;;2069185;28;20053;-70
2022/11/17 03:46:03;;;;;;;2.08;0.90;;;12.00;99.90;;;;;;2069142;28;20017;-70
2022/11/17 03:47:06;;;;;;;2.25;0.90;;;12.00;99.90;;;;;;2070501;28;20077;-70
2022/11/17 03:48:36;;;;;;;3.10;1.00;;;12.10;99.90;;;;;;2069606;28;20032;-70
2022/11/17 03:49:51;;;;;;;2.05;1.00;;;12.00;99.90;;;;;;2069752;28;20022;-70
2022/11/17 03:51:03;;;;;;;1.65;0.80;;;12.00;99.90;;;;;;2069432;28;20149;-70
2022/11/17 03:52:03;;;;;;;4.05;1.10;;;12.00;99.90;;;;;;2071034;28;20028;-70
2022/11/17 03:53:05;;;;;;;2.47;1.08;;;12.00;99.90;;;;;;2069012;28;20037;-70
2022/11/17 03:54:06;;;;;;;3.10;1.00;;;12.00;99.90;;;;;;2070844;28;20034;-70
2022/11/17 03:55:08;;;;;;;1.10;0.80;;;12.00;99.90;;;;;;2071004;28;20033;-70
2022/11/17 03:56:25;;;;;;;2.05;0.95;;;12.00;99.90;;;;;;2070452;28;20101;-70
2022/11/17 03:57:55;;;;;;;2.22;1.10;;;12.00;99.90;;;;;;2069552;28;20050;-70
2022/11/17 03:59:04;;;;;;;6.50;1.02;;;12.00;99.90;;;;;;2068909;28;20029;-70
2022/11/17 04:00:09;;;;;;;2.45;1.20;;;12.00;99.90;;;;;;2068315;28;20026;-70
2022/11/17 04:01:11;;;;;;;1.48;0.90;;;12.00;99.90;;;;;;2069032;28;20034;-70
2022/11/17 04:02:15;;;;;;;1.65;0.73;;;12.00;99.90;;;;;;2069862;28;20144;-70
2022/11/17 04:03:16;;;;;;;3.15;1.05;;;12.00;99.90;;;;;;2066873;28;20026;-70
2022/11/17 04:04:18;;;;;;;1.58;1.00;;;12.00;99.90;;;;;;2069164;28;20022;-70
2022/11/17 04:05:19;;;;;;;2.58;0.93;;;12.00;99.90;;;;;;2069644;28;20026;-70
2022/11/17 04:06:20;;;;;;;2.65;0.90;;;12.00;99.90;;;;;;2067761;28;20026;-70
2022/11/17 04:07:20;;;;;;;1.42;1.00;;;12.00;99.90;;;;;;2069345;28;20080;-70
2022/11/17 04:08:22;;;;;;;1.63;0.93;;;12.00;99.90;;;;;;2070005;28;20076;-70
2022/11/17 04:09:23;;;;;;;1.45;1.00;;;12.00;99.90;;;;;;2069274;28;20022;-70
2022/11/17 04:10:25;;;;;;;2.30;1.17;;;12.00;99.90;;;;;;2071452;28;20097;-70
2022/11/17 04:16:43;;;;;;;3.05;1.08;;;12.00;99.90;;;;;;2068700;28;20025;-70
2022/11/17 04:17:44;;;;;;;3.63;0.80;;;12.00;99.90;;;;;;2068585;28;20474;-70
2022/11/17 04:18:44;;;;;;;2.72;0.98;;;12.00;99.90;;;;;;2069669;28;20456;-70
2022/11/17 04:19:45;;;;;;;1.63;0.80;;;12.00;99.90;;;;;;2070685;28;20960;-70
2022/11/17 04:20:53;;;;;;;2.42;1.00;;;12.00;99.90;;;;;;2068188;28;20487;-70
2022/11/17 04:21:54;;;;;;;1.95;0.80;;;12.00;99.90;;;;;;2069370;28;20473;-70
2022/11/17 04:23:06;;;;;;;1.40;1.10;;;12.00;99.90;;;;;;2069053;28;20061;-70
2022/11/17 04:24:07;;;;;;;2.25;1.10;;;12.00;99.90;;;;;;2070013;28;20035;-70
2022/11/17 04:25:08;;;;;;;3.05;1.00;;;12.00;99.90;;;;;;2068565;28;20022;-70
2022/11/17 04:28:49;;;;;;;2.85;1.38;;;11.90;99.90;;;;;;2070319;28;20113;-70
2022/11/17 04:29:49;;;;;;;2.13;0.95;;;12.00;99.90;;;;;;2069271;28;20502;-70
2022/11/17 04:30:50;;;;;;;2.38;1.13;;;12.00;99.90;;;;;;2067642;28;20568;-70
2022/11/17 04:31:50;;;;;;;4.18;1.40;;;12.00;99.90;;;;;;2069704;28;20025;-70
2022/11/17 04:32:51;;;;;;;1.80;0.98;;;12.00;99.90;;;;;;2068665;28;20029;-70
2022/11/17 04:34:03;;;;;;;2.03;1.00;;;12.00;99.90;;;;;;2076720;28;20039;-70
2022/11/17 04:35:03;;;;;;;1.20;1.00;;;12.00;99.90;;;;;;2077046;28;20022;-70
2022/11/17 04:36:05;;;;;;;1.08;0.80;;;12.10;99.90;;;;;;2069845;28;20030;-70
2022/11/17 04:37:16;;;;;;;3.33;0.90;;;12.10;99.90;;;;;;2070880;28;21394;-70
2022/11/17 04:38:16;;;;;;;1.98;1.10;;;12.10;99.90;;;;;;2070933;28;20068;-70
2022/11/17 04:39:17;;;;;;;1.25;0.98;;;12.10;99.90;;;;;;2071242;28;20028;-70
2022/11/17 04:40:18;;;;;;;1.60;0.90;;;12.10;99.90;;;;;;2071045;28;20088;-70
2022/11/17 04:42:39;;;;;;;2.47;1.10;;;12.10;99.90;;;;;;2068478;28;20474;-70
2022/11/17 04:43:40;;;;;;;1.63;0.85;;;12.10;99.90;;;;;;2070486;28;20484;-70
2022/11/17 04:44:40;;;;;;;2.58;1.08;;;12.10;99.90;;;;;;2072424;28;20731;-70
2022/11/17 04:45:41;;;;;;;2.05;1.17;;;12.10;99.90;;;;;;2069728;28;20023;-70
2022/11/17 04:46:45;;;;;;;2.00;0.82;;;12.10;99.90;;;;;;2069041;28;20638;-70
2022/11/17 04:47:45;;;;;;;2.33;0.90;;;12.10;99.90;;;;;;2069289;28;20038;-70
2022/11/17 04:48:47;;;;;;;1.27;1.10;;;12.10;99.90;;;;;;2071313;28;20022;-70
2022/11/17 04:49:47;;;;;;;2.45;0.90;;;12.20;99.90;;;;;;2070384;28;20745;-70
2022/11/17 04:50:52;;;;;;;1.67;0.70;;;12.10;99.90;;;;;;2069582;28;20034;-70
2022/11/17 04:51:53;;;;;;;3.13;0.98;;;12.10;99.90;;;;;;2069287;28;20026;-70
2022/11/17 04:52:53;;;;;;;1.98;0.90;;;12.10;99.90;;;;;;2066196;28;20764;-70
2022/11/17 04:53:55;;;;;;;2.55;0.90;;;12.10;99.90;;;;;;2067690;28;20108;-70
2022/11/17 04:54:55;;;;;;;1.42;1.02;;;12.20;99.90;;;;;;2068323;28;20718;-70
2022/11/17 04:56:00;;;;;;;1.27;1.00;;;12.20;99.90;;;;;;2069091;28;20150;-70
2022/11/17 04:57:00;;;;;;;1.65;0.90;;;12.20;99.90;;;;;;2070610;28;20038;-70
2022/11/17 04:58:01;;;;;;;1.42;1.10;;;12.20;99.90;;;;;;2069782;28;20025;-70
2022/11/17 04:59:01;;;;;;;5.38;1.20;;;12.10;99.90;;;;;;2070580;28;20030;-70
2022/11/17 05:00:02;;;;;;;2.38;1.00;;;12.10;99.90;;;;;;2070440;28;20026;-70
2022/11/17 05:01:12;;;;;;;1.83;0.95;;;12.20;99.90;;;;;;2069597;28;20028;-70
2022/11/17 05:02:13;;;;;;;2.55;1.10;;;12.20;99.90;;;;;;2076538;28;20221;-70
2022/11/17 05:03:13;;;;;;;2.30;1.15;;;12.20;99.90;;;;;;2069065;28;20141;-70
2022/11/17 05:05:35;;;;;;;2.55;0.65;;;12.20;99.90;;;;;;2070797;28;20021;-70
2022/11/17 05:06:43;;;;;;;1.35;0.90;;;12.10;99.90;;;;;;2070654;28;20014;-70
2022/11/17 05:07:44;;;;;;;1.02;0.85;;;12.20;99.90;;;;;;2069353;28;20064;-70
2022/11/17 05:08:45;;;;;;;2.08;1.10;;;12.20;99.90;;;;;;2069532;28;20037;-70
2022/11/17 05:09:45;;;;;;;2.10;1.08;;;12.20;99.90;;;;;;2070176;28;20070;-70
2022/11/17 05:13:26;;;;;;;1.83;0.80;;;12.20;99.90;;;;;;2070598;28;20025;-70
2022/11/17 05:14:27;;;;;;;2.20;1.05;;;12.20;99.90;;;;;;2070779;28;20105;-70
2022/11/17 05:17:07;;;;;;;2.65;0.70;;;12.20;99.90;;;;;;2069289;28;20034;-70
2022/11/17 05:18:08;;;;;;;3.72;1.23;;;12.20;99.90;;;;;;2070484;28;20100;-70
2022/11/17 05:19:13;;;;;;;2.15;0.80;;;12.20;99.90;;;;;;2069944;28;20502;-70
2022/11/17 05:20:16;;;;;;;2.05;1.35;;;12.20;99.90;;;;;;2069278;28;20735;-70
2022/11/17 05:21:16;;;;;;;4.03;0.90;;;12.20;99.90;;;;;;2069933;28;20456;-70
2022/11/17 05:23:55;;;;;;;2.65;1.25;;;12.20;99.90;;;;;;2044342;28;20050;-70
2022/11/17 05:24:56;;;;;;;1.17;0.98;;;12.20;99.90;;;;;;2066932;28;20081;-70
2022/11/17 05:25:56;;;;;;;1.67;0.85;;;12.20;99.90;;;;;;2068985;28;20763;-70
2022/11/17 05:26:57;;;;;;;1.38;1.17;;;12.10;99.90;;;;;;2069710;28;20085;-70
2022/11/17 05:27:57;;;;;;;3.95;1.65;;;12.10;99.90;;;;;;2069312;28;20022;-70
2022/11/17 05:29:00;;;;;;;1.48;0.98;;;12.20;99.90;;;;;;2070812;28;20506;-70
2022/11/17 05:30:03;;;;;;;2.17;1.05;;;12.20;99.90;;;;;;2068949;28;20109;-70
2022/11/17 05:31:04;;;;;;;3.00;1.00;;;12.10;99.90;;;;;;2069687;28;20026;-70
2022/11/17 05:32:04;;;;;;;2.53;1.25;;;12.20;99.90;;;;;;2069427;28;20057;-70
2022/11/17 05:33:05;;;;;;;1.45;1.10;;;12.20;99.90;;;;;;2068257;28;20030;-70
2022/11/17 05:34:08;;;;;;;4.15;1.35;;;12.10;99.90;;;;;;2070331;28;20057;-70
2022/11/17 05:35:09;;;;;;;3.75;1.52;;;12.10;99.90;;;;;;2070150;28;20494;-70
2022/11/17 05:36:09;;;;;;;1.55;1.27;;;12.10;99.90;;;;;;2070060;28;20562;-70
2022/11/17 05:37:10;;;;;;;2.42;1.25;;;12.10;99.90;;;;;;2071402;28;20030;-70
2022/11/17 05:38:10;;;;;;;3.75;1.45;;;12.10;99.90;;;;;;2068274;28;20037;-70
2022/11/17 05:39:12;;;;;;;6.63;1.52;;;12.10;99.90;;;;;;2070125;28;20033;-70
2022/11/17 05:40:13;;;;;;;3.58;1.80;;;12.10;99.90;;;;;;2068585;28;20021;-70
2022/11/17 05:41:15;;;;;;;1.80;1.00;;;12.10;99.90;;;;;;2067952;28;20022;-70
2022/11/17 05:42:15;;;;;;;4.70;1.45;;;12.10;99.90;;;;;;2069727;28;20026;-70
2022/11/17 05:43:16;;;;;;;4.00;1.55;;;12.10;99.90;;;;;;2068788;28;20030;-70
2022/11/17 05:44:17;;;;;;;3.13;1.23;;;12.10;99.90;;;;;;2069512;28;20026;-70
2022/11/17 05:45:18;;;;;;;3.15;1.33;;;12.10;99.90;;;;;;2069206;28;20029;-70
2022/11/17 05:46:20;;;;;;;3.83;1.65;;;12.10;99.90;;;;;;2068509;28;20041;-70
2022/11/17 05:47:20;;;;;;;3.15;1.45;;;12.10;99.90;;;;;;2069335;28;20026;-70
2022/11/17 05:48:21;;;;;;;3.17;1.20;;;12.10;99.90;;;;;;2068065;28;20771;-70
2022/11/17 05:49:21;;;;;;;4.15;1.13;;;12.20;99.90;;;;;;2069106;28;20509;-70
2022/11/17 05:50:22;;;;;;;3.42;1.20;;;12.10;99.90;;;;;;2068668;28;20022;-70
2022/11/17 05:51:23;;;;;;;2.40;1.20;;;12.10;99.90;;;;;;2068636;28;20469;-70
2022/11/17 05:52:23;;;;;;;4.05;1.42;;;12.20;99.90;;;;;;2068677;28;20022;-70
2022/11/17 05:53:24;;;;;;;3.25;1.33;;;12.10;99.90;;;;;;2068759;28;20030;-70
2022/11/17 05:54:25;;;;;;;4.43;1.30;;;12.10;99.90;;;;;;2069273;28;20076;-70
2022/11/17 05:55:26;;;;;;;1.92;1.10;;;12.20;99.90;;;;;;2070161;28;20057;-70
2022/11/17 05:56:40;;;;;;;3.03;1.25;;;12.10;99.90;;;;;;2068245;28;20490;-70
2022/11/17 05:57:42;;;;;;;4.05;1.50;;;12.20;99.90;;;;;;2068016;28;20042;-70
2022/11/17 05:58:47;;;;;;;1.88;1.20;;;12.20;99.90;;;;;;2071222;28;20485;-70
2022/11/17 05:59:53;;;;;;;4.53;1.60;;;12.20;99.90;;;;;;2069757;28;20162;-70
2022/11/17 06:00:56;;;;;;;2.15;1.35;;;12.20;99.90;;;;;;2070002;28;20026;-70
2022/11/17 06:02:12;;;;;;;3.35;1.75;;;12.20;99.90;;;;;;2070683;28;20026;-70
2022/11/17 06:03:27;;;;;;;3.08;1.40;;;12.20;99.90;;;;;;2071320;28;20026;-70
2022/11/17 06:04:29;;;;;;;3.90;1.85;;;12.20;99.90;;;;;;2070015;28;20026;-70
2022/11/17 06:05:29;;;;;;;5.47;1.48;;;12.20;99.90;;;;;;2068255;28;20022;-70